MSC Mandraki — SZUH — position and weather

sailwx.info

Track history (hours):
 
Tides and Currents Weather Stations Pressure Air Temp Water Temp Dewpoint Dewpoint Depression Visibility Wind Speed Wind Dir Waves Ship Positions

MSC Mandraki

Last reported at 2016-May-26 03:32 UTC. Time now 2016-May-26 04:44 UTC.
Position N 51°52' E 002°06'.

Length 294 m; draft 8.5 m.

Type: Ship. MMSI: 240265000.

Date/timePositionNaut miles runAvg speedWind from/ knotsBaromVisibWave heightAir tempDewpointWater temp
2016-May-26 03:32N 51°52' E 002°06'1515.1
2016-May-26 02:34N 51°50' E 001°43'10 9.9
2016-May-26 01:34N 51°56' E 001°31'8 7.7
2016-May-26 00:31N 51°58' E 001°18'0 0.0
2016-May-25 23:31N 51°58' E 001°18'0 0.0
2016-May-25 22:31N 51°58' E 001°18'0 0.0
2016-May-25 21:31N 51°58' E 001°18'0 0.0
2016-May-25 20:31N 51°58' E 001°18'0 0.0
2016-May-25 19:31N 51°58' E 001°18'0 0.0
2016-May-25 18:31N 51°58' E 001°18'0 0.0
2016-May-25 17:31N 51°58' E 001°18'2 2.0
2016-May-25 16:34N 51°56' E 001°19'10 9.6
2016-May-25 15:34N 51°53' E 001°34'1010.0
2016-May-25 14:34N 51°49' E 001°48'1818.1
2016-May-25 13:33N 51°31' E 001°55'1515.3
2016-May-25 12:33N 51°16' E 001°53'1919.4
2016-May-25 11:33N 51°01' E 001°33'5418.1
2016-May-25 08:33N 50°26' E 000°27'2019.8
2016-May-25 07:33N 50°20' W 000°02'10416.5
2016-May-25 01:15N 49°52' W 002°38'1217.3
2016-May-25 00:33N 49°47' W 002°55'1818.1
2016-May-24 23:33N 49°38' W 003°19'9518.9
2016-May-24 18:33N 48°53' W 005°27'62018.8
2016-May-23 09:33N 39°03' W 009°52'1919.4
2016-May-23 08:33N 38°44' W 009°51'1918.9
2016-May-23 07:33N 38°29' W 009°36'1919.4
2016-May-23 06:33N 38°15' W 009°19'2019.6
2016-May-23 05:33N 38°01' W 009°01'10 9.8
2016-May-23 04:33N 37°56' W 008°51'0 0.1
2016-May-23 03:32N 37°56' W 008°51'0 0.0
2016-May-23 02:32N 37°56' W 008°51'0 0.0
2016-May-23 01:29N 37°56' W 008°51'0 0.0
2016-May-23 00:32N 37°56' W 008°51'0 0.0
2016-May-22 23:32N 37°56' W 008°51'0 0.0
2016-May-22 22:32N 37°56' W 008°51'0 0.0
2016-May-22 21:33N 37°56' W 008°51'2 2.0
2016-May-22 20:33N 37°54' W 008°50'6 6.1
2016-May-22 19:33N 37°48' W 008°52'1 1.0
2016-May-22 18:34N 37°48' W 008°53'9 8.6
2016-May-22 17:33N 37°41' W 008°58'1918.5
2016-May-22 16:33N 37°24' W 009°08'1919.6
2016-May-22 15:33N 37°06' W 009°18'1916.9
2016-May-22 14:25N 36°48' W 009°13'18518.7
2016-May-22 04:33N 35°58' W 005°31'23219.2
2016-May-21 16:28N 36°30' W 000°46'1920.4
2016-May-21 15:33N 36°33' W 000°23'2220.3
2016-May-21 14:28N 36°37' E 000°04'1920.6
2016-May-21 13:32N 36°40' E 000°27'2020.4
2016-May-21 12:33N 36°43' E 000°52'2019.8
2016-May-21 11:34N 36°46' E 001°16'2019.9
2016-May-21 10:33N 36°50' E 001°41'2019.5
2016-May-21 09:33N 36°54' E 002°05'2020.2
2016-May-21 08:33N 36°57' E 002°30'53519.1
2016-May-20 04:33N 36°39' E 013°38'1919.2
2016-May-20 03:33N 36°35' E 014°01'2019.9
2016-May-20 02:33N 36°30' E 014°25'2019.8
2016-May-20 01:33N 36°25' E 014°49'8820.0
2016-May-19 21:10N 36°22' E 016°38'32519.1
2016-May-19 04:10N 36°27' E 023°22'1719.1
2016-May-19 03:16N 36°44' E 023°29'1418.9
2016-May-19 02:32N 36°57' E 023°34'1919.2
2016-May-19 01:32N 37°15' E 023°41'1818.6
2016-May-19 00:33N 37°33' E 023°43'1818.0
2016-May-18 23:33N 37°50' E 023°36'7 6.5
2016-May-18 22:31N 37°57' E 023°36'0 0.0
2016-May-18 21:31N 37°57' E 023°36'0 0.0
2016-May-18 20:31N 37°57' E 023°36'0 0.0
2016-May-18 19:31N 37°57' E 023°36'0 0.0
2016-May-18 18:31N 37°57' E 023°36'0 0.0
2016-May-18 17:31N 37°57' E 023°36'0 0.0
2016-May-18 16:31N 37°57' E 023°36'0 0.0
2016-May-18 15:31N 37°57' E 023°36'0 0.0
2016-May-18 14:31N 37°57' E 023°36'0 0.0
2016-May-18 13:31N 37°57' E 023°36'0 0.0
2016-May-18 12:31N 37°57' E 023°36'0 0.0
2016-May-18 11:31N 37°57' E 023°36'0 0.0
2016-May-18 10:33N 37°57' E 023°36'0 0.0
2016-May-18 09:33N 37°57' E 023°36'0 0.2
2016-May-18 08:34N 37°57' E 023°36'3 2.6
2016-May-18 07:33N 37°55' E 023°37'8 8.0
2016-May-18 06:34N 37°47' E 023°41'1514.6
2016-May-18 05:34N 37°36' E 023°53'2612.9
2016-May-18 03:34N 37°48' E 024°22'1515.4
2016-May-18 02:34N 37°57' E 024°37'1815.3
2016-May-18 01:24N 38°11' E 024°52'  
Track history (hours):
 
Tides and Currents Weather Stations Pressure Air Temp Water Temp Dewpoint Dewpoint Depression Visibility Wind Speed Wind Dir Waves Ship Positions

MSC Mandraki

Last reported at 2016-May-26 03:32 UTC. Time now 2016-May-26 04:44 UTC.
Position N 51°52' E 002°06'.

Length 294 m; draft 8.5 m.

Type: Ship. MMSI: 240265000.

Date/timePositionNaut miles runAvg speedWind from/ knotsBaromVisibWave heightAir tempDewpointWater temp
2016-May-26 03:32N 51°52' E 002°06'1515.1
2016-May-26 02:34N 51°50' E 001°43'10 9.9
2016-May-26 01:34N 51°56' E 001°31'8 7.7
2016-May-26 00:31N 51°58' E 001°18'0 0.0
2016-May-25 23:31N 51°58' E 001°18'0 0.0
2016-May-25 22:31N 51°58' E 001°18'0 0.0
2016-May-25 21:31N 51°58' E 001°18'0 0.0
2016-May-25 20:31N 51°58' E 001°18'0 0.0
2016-May-25 19:31N 51°58' E 001°18'0 0.0
2016-May-25 18:31N 51°58' E 001°18'0 0.0
2016-May-25 17:31N 51°58' E 001°18'2 2.0
2016-May-25 16:34N 51°56' E 001°19'10 9.6
2016-May-25 15:34N 51°53' E 001°34'1010.0
2016-May-25 14:34N 51°49' E 001°48'1818.1
2016-May-25 13:33N 51°31' E 001°55'1515.3
2016-May-25 12:33N 51°16' E 001°53'1919.4
2016-May-25 11:33N 51°01' E 001°33'5418.1
2016-May-25 08:33N 50°26' E 000°27'2019.8
2016-May-25 07:33N 50°20' W 000°02'10416.5
2016-May-25 01:15N 49°52' W 002°38'1217.3
2016-May-25 00:33N 49°47' W 002°55'1818.1
2016-May-24 23:33N 49°38' W 003°19'9518.9
2016-May-24 18:33N 48°53' W 005°27'62018.8
2016-May-23 09:33N 39°03' W 009°52'1919.4
2016-May-23 08:33N 38°44' W 009°51'1918.9
2016-May-23 07:33N 38°29' W 009°36'1919.4
2016-May-23 06:33N 38°15' W 009°19'2019.6
2016-May-23 05:33N 38°01' W 009°01'10 9.8
2016-May-23 04:33N 37°56' W 008°51'0 0.1
2016-May-23 03:32N 37°56' W 008°51'0 0.0
2016-May-23 02:32N 37°56' W 008°51'0 0.0
2016-May-23 01:29N 37°56' W 008°51'0 0.0
2016-May-23 00:32N 37°56' W 008°51'0 0.0
2016-May-22 23:32N 37°56' W 008°51'0 0.0
2016-May-22 22:32N 37°56' W 008°51'0 0.0
2016-May-22 21:33N 37°56' W 008°51'2 2.0
2016-May-22 20:33N 37°54' W 008°50'6 6.1
2016-May-22 19:33N 37°48' W 008°52'1 1.0
2016-May-22 18:34N 37°48' W 008°53'9 8.6
2016-May-22 17:33N 37°41' W 008°58'1918.5
2016-May-22 16:33N 37°24' W 009°08'1919.6
2016-May-22 15:33N 37°06' W 009°18'1916.9
2016-May-22 14:25N 36°48' W 009°13'18518.7
2016-May-22 04:33N 35°58' W 005°31'23219.2
2016-May-21 16:28N 36°30' W 000°46'1920.4
2016-May-21 15:33N 36°33' W 000°23'2220.3
2016-May-21 14:28N 36°37' E 000°04'1920.6
2016-May-21 13:32N 36°40' E 000°27'2020.4
2016-May-21 12:33N 36°43' E 000°52'2019.8
2016-May-21 11:34N 36°46' E 001°16'2019.9
2016-May-21 10:33N 36°50' E 001°41'2019.5
2016-May-21 09:33N 36°54' E 002°05'2020.2
2016-May-21 08:33N 36°57' E 002°30'53519.1
2016-May-20 04:33N 36°39' E 013°38'1919.2
2016-May-20 03:33N 36°35' E 014°01'2019.9
2016-May-20 02:33N 36°30' E 014°25'2019.8
2016-May-20 01:33N 36°25' E 014°49'8820.0
2016-May-19 21:10N 36°22' E 016°38'32519.1
2016-May-19 04:10N 36°27' E 023°22'1719.1
2016-May-19 03:16N 36°44' E 023°29'1418.9
2016-May-19 02:32N 36°57' E 023°34'1919.2
2016-May-19 01:32N 37°15' E 023°41'1818.6
2016-May-19 00:33N 37°33' E 023°43'1818.0
2016-May-18 23:33N 37°50' E 023°36'7 6.5
2016-May-18 22:31N 37°57' E 023°36'0 0.0
2016-May-18 21:31N 37°57' E 023°36'0 0.0
2016-May-18 20:31N 37°57' E 023°36'0 0.0
2016-May-18 19:31N 37°57' E 023°36'0 0.0
2016-May-18 18:31N 37°57' E 023°36'0 0.0
2016-May-18 17:31N 37°57' E 023°36'0 0.0
2016-May-18 16:31N 37°57' E 023°36'0 0.0
2016-May-18 15:31N 37°57' E 023°36'0 0.0
2016-May-18 14:31N 37°57' E 023°36'0 0.0
2016-May-18 13:31N 37°57' E 023°36'0 0.0
2016-May-18 12:31N 37°57' E 023°36'0 0.0
2016-May-18 11:31N 37°57' E 023°36'0 0.0
2016-May-18 10:33N 37°57' E 023°36'0 0.0
2016-May-18 09:33N 37°57' E 023°36'0 0.2
2016-May-18 08:34N 37°57' E 023°36'3 2.6
2016-May-18 07:33N 37°55' E 023°37'8 8.0
2016-May-18 06:34N 37°47' E 023°41'1514.6
2016-May-18 05:34N 37°36' E 023°53'2612.9
2016-May-18 03:34N 37°48' E 024°22'1515.4
2016-May-18 02:34N 37°57' E 024°37'1815.3
2016-May-18 01:24N 38°11' E 024°52'  

Dump ship's entire track history